Time;durP1;ratioP1;P1;durP2;ratioP2;P2;SDS_P1;SDS_P2;PMS_P1;PMS_P2;Temp;Humidity;BMP_temperature;BMP_pressure;BME280_temperature;BME280_humidity;BME280_pressure;Samples;Min_cycle;Max_cycle;Signal;HPM_P1;HPM_P2
2022/08/17 00:01:42;;;;;;;1.88;1.42;;;;;;;24.79;47.88;98257.41;5041325;28;20041;-64
2022/08/17 00:04:27;;;;;;;2.88;1.20;;;;;;;24.69;47.95;98263.19;5037127;28;20428;-64
2022/08/17 00:07:12;;;;;;;2.08;1.10;;;;;;;24.64;47.60;98258.47;5040226;28;20103;-64
2022/08/17 00:09:56;;;;;;;2.08;1.20;;;;;;;24.67;47.67;98258.06;5047022;28;20388;-65
2022/08/17 00:12:42;;;;;;;3.55;1.30;;;;;;;24.90;47.03;98254.09;5040363;28;20041;-64
2022/08/17 00:15:27;;;;;;;1.85;1.17;;;;;;;25.00;47.31;98259.00;5032597;28;20040;-63
2022/08/17 00:18:12;;;;;;;2.40;1.20;;;;;;;25.13;47.10;98254.63;5046636;28;20045;-63
2022/08/17 00:20:59;;;;;;;2.50;1.33;;;;;;;25.02;47.28;98251.56;5032558;28;20045;-63
2022/08/17 00:23:44;;;;;;;1.70;1.10;;;;;;;24.90;47.79;98253.28;5043310;28;20469;-64
2022/08/17 00:26:29;;;;;;;2.63;1.20;;;;;;;24.68;48.02;98254.34;5051709;28;20094;-63
2022/08/17 00:29:13;;;;;;;2.30;1.42;;;;;;;24.68;48.45;98256.19;5060606;28;20041;-63
2022/08/17 00:32:00;;;;;;;2.78;1.20;;;;;;;24.95;47.94;98250.78;5060393;28;20047;-63
2022/08/17 00:34:45;;;;;;;2.22;1.17;;;;;;;25.19;47.42;98251.09;5031675;28;20120;-63
2022/08/17 00:37:29;;;;;;;3.17;1.25;;;;;;;25.54;46.82;98247.19;5060355;28;20392;-63
2022/08/17 00:40:16;;;;;;;1.45;1.30;;;;;;;25.52;46.51;98254.63;5032300;28;20045;-63
2022/08/17 00:43:18;;;;;;;1.35;1.20;;;;;;;25.43;46.56;98243.31;5033220;28;20057;-63
2022/08/17 00:46:10;;;;;;;1.70;1.10;;;;;;;25.54;46.00;98253.38;5034815;28;20496;-63
2022/08/17 00:48:58;;;;;;;2.50;1.33;;;;;;;25.38;46.12;98249.34;5040533;28;20123;-63
2022/08/17 00:51:55;;;;;;;1.67;1.20;;;;;;;25.21;47.05;98249.84;5041853;28;20415;-64
2022/08/17 00:54:43;;;;;;;3.13;1.30;;;;;;;24.99;47.43;98246.63;5044655;28;20504;-64
2022/08/17 00:57:31;;;;;;;3.03;1.20;;;;;;;24.73;46.93;98254.53;5033121;28;20128;-64
2022/08/17 01:00:25;;;;;;;1.10;0.90;;;;;;;24.55;47.91;98246.31;5045081;28;20075;-64
2022/08/17 01:03:17;;;;;;;3.25;1.40;;;;;;;24.41;48.24;98245.53;5034810;28;20093;-63
2022/08/17 01:06:04;;;;;;;2.00;1.38;;;;;;;24.36;48.61;98247.00;5039992;28;20048;-63
2022/08/17 01:08:52;;;;;;;2.03;1.20;;;;;;;24.50;48.13;98248.81;5035213;28;20030;-63
2022/08/17 01:11:39;;;;;;;2.05;1.35;;;;;;;24.55;47.64;98246.31;5032507;28;20087;-63
2022/08/17 01:14:24;;;;;;;1.40;1.17;;;;;;;24.47;47.79;98247.38;5032692;28;20037;-63
2022/08/17 01:17:09;;;;;;;2.15;1.25;;;;;;;23.88;49.33;98250.66;5032659;28;20103;-63
2022/08/17 01:19:55;;;;;;;4.57;1.33;;;;;;;23.77;50.21;98256.63;5072549;28;20052;-63
2022/08/17 01:22:40;;;;;;;2.13;1.15;;;;;;;24.05;49.93;98258.28;5041882;28;20059;-65
2022/08/17 01:25:26;;;;;;;2.70;1.45;;;;;;;24.21;49.24;98257.91;5044681;28;20033;-63
2022/08/17 01:28:10;;;;;;;3.08;1.20;;;;;;;24.32;49.24;98253.78;5045318;28;20052;-63
2022/08/17 01:30:56;;;;;;;1.60;1.20;;;;;;;24.28;49.10;98257.91;5031980;28;20045;-64
2022/08/17 01:33:42;;;;;;;3.17;1.30;;;;;;;23.96;50.02;98253.16;5032699;28;20038;-64
2022/08/17 01:36:27;;;;;;;2.13;1.35;;;;;;;24.10;50.34;98245.13;5032304;28;20033;-64
2022/08/17 01:39:23;;;;;;;1.92;1.23;;;;;;;24.27;49.77;98248.22;5015105;28;20185;-64
2022/08/17 01:42:14;;;;;;;2.53;1.30;;;;;;;23.98;50.11;98252.94;5032244;28;20045;-64
2022/08/17 01:45:19;;;;;;;2.00;1.30;;;;;;;23.86;49.98;98255.41;5044653;28;20049;-64
2022/08/17 01:48:04;;;;;;;1.95;1.13;;;;;;;24.04;50.43;98257.47;5018031;28;20062;-64
2022/08/17 01:50:50;;;;;;;1.85;1.20;;;;;;;24.15;50.30;98249.84;5032303;28;20033;-64
2022/08/17 01:53:41;;;;;;;1.35;1.08;;;;;;;24.15;49.95;98252.53;5044512;28;20048;-64
2022/08/17 01:56:28;;;;;;;1.60;1.25;;;;;;;24.36;50.33;98259.53;5031798;28;20049;-64
2022/08/17 01:59:15;;;;;;;3.38;1.20;;;;;;;24.47;49.71;98258.91;5036315;28;20437;-63
2022/08/17 02:02:00;;;;;;;2.75;1.55;;;;;;;24.80;47.80;98256.34;5037463;28;20064;-63
2022/08/17 02:04:45;;;;;;;5.05;1.45;;;;;;;24.50;49.17;98257.66;5031711;28;20065;-66
2022/08/17 02:07:29;;;;;;;3.97;1.73;;;;;;;24.21;49.43;98257.09;5030947;28;20034;-64
2022/08/17 02:10:14;;;;;;;3.63;1.52;;;;;;;23.98;50.46;98258.28;5030440;28;20049;-64
2022/08/17 02:13:02;;;;;;;3.70;1.60;;;;;;;23.77;50.83;98253.94;5042636;28;20114;-63
2022/08/17 02:15:47;;;;;;;1.70;1.15;;;;;;;24.03;50.80;98258.50;5030974;28;20477;-64
2022/08/17 02:18:32;;;;;;;3.15;1.73;;;;;;;23.88;50.45;98258.69;5034961;28;20045;-63
2022/08/17 02:21:17;;;;;;;2.45;1.55;;;;;;;23.78;51.23;98267.13;5040154;28;20085;-65
2022/08/17 02:24:03;;;;;;;3.13;1.63;;;;;;;23.88;50.76;98256.03;5050923;28;20118;-64
2022/08/17 02:26:48;;;;;;;2.05;1.50;;;;;;;23.54;51.43;98261.31;5037762;28;20080;-64
2022/08/17 02:29:34;;;;;;;2.47;1.30;;;;;;;23.63;51.58;98270.00;5044998;28;20044;-65
2022/08/17 02:32:22;;;;;;;2.08;1.52;;;;;;;23.65;51.22;98265.25;5033559;28;20059;-64
2022/08/17 02:35:07;;;;;;;2.55;1.40;;;;;;;23.57;52.15;98265.44;5034818;28;20047;-64
2022/08/17 02:37:53;;;;;;;3.75;1.55;;;;;;;23.76;51.25;98261.16;5043036;28;20108;-64
2022/08/17 02:40:39;;;;;;;2.25;1.35;;;;;;;23.56;51.92;98259.28;5044163;28;20047;-63
2022/08/17 02:43:26;;;;;;;2.78;1.52;;;;;;;23.32;53.05;98258.75;5044494;28;20041;-64
2022/08/17 02:46:11;;;;;;;3.45;1.70;;;;;;;23.09;53.48;98256.44;5046089;28;20072;-65
2022/08/17 02:48:58;;;;;;;3.17;1.40;;;;;;;23.49;52.24;98251.25;5026570;28;20049;-63
2022/08/17 02:51:42;;;;;;;2.25;1.70;;;;;;;23.45;52.17;98262.53;5034243;28;20041;-64
2022/08/17 02:54:27;;;;;;;2.10;1.33;;;;;;;23.08;53.46;98260.94;5047998;28;20139;-63
2022/08/17 02:57:12;;;;;;;4.15;1.90;;;;;;;22.97;54.18;98254.34;5048334;28;20041;-64
2022/08/17 02:59:56;;;;;;;2.35;1.40;;;;;;;23.18;53.37;98260.56;5035226;28;20042;-63
2022/08/17 03:02:43;;;;;;;3.22;1.48;;;;;;;23.32;53.11;98261.44;5049924;28;20076;-64
2022/08/17 03:05:30;;;;;;;3.08;1.60;;;;;;;23.22;53.14;98255.66;5049063;28;20389;-63
2022/08/17 03:08:15;;;;;;;4.03;1.63;;;;;;;23.38;52.76;98265.16;5047625;28;20046;-64
2022/08/17 03:11:00;;;;;;;2.25;1.48;;;;;;;23.13;53.61;98269.19;5046740;28;20484;-64
2022/08/17 03:13:44;;;;;;;3.10;1.45;;;;;;;22.78;53.92;98269.25;5063630;28;20473;-63
2022/08/17 03:16:29;;;;;;;3.13;1.48;;;;;;;22.56;55.03;98263.94;5037244;28;20045;-63
2022/08/17 03:19:14;;;;;;;2.78;1.70;;;;;;;22.56;54.98;98263.94;5037583;28;20143;-64
2022/08/17 03:21:58;;;;;;;3.30;1.50;;;;;;;22.32;55.47;98265.22;5039734;28;20069;-63
2022/08/17 03:24:43;;;;;;;1.77;1.50;;;;;;;22.35;55.69;98262.97;5038111;28;21169;-63
2022/08/17 03:27:28;;;;;;;4.85;1.52;;;;;;;22.31;55.85;98266.25;5036125;28;20072;-62
2022/08/17 03:30:13;;;;;;;3.08;1.75;;;;;;;22.62;55.63;98268.50;5047529;28;20439;-64
2022/08/17 03:33:01;;;;;;;3.17;1.50;;;;;;;22.36;56.19;98263.81;5037913;28;20120;-64
2022/08/17 03:35:47;;;;;;;3.08;1.30;;;;;;;22.49;56.53;98268.41;5052498;28;20079;-66
2022/08/17 03:38:32;;;;;;;3.03;1.80;;;;;;;22.99;54.79;98268.31;5043732;28;20048;-65
2022/08/17 03:41:16;;;;;;;2.53;1.55;;;;;;;22.69;55.55;98273.06;5035262;28;20033;-64
2022/08/17 03:44:01;;;;;;;5.38;1.70;;;;;;;22.02;57.07;98272.38;5034000;28;20104;-64
2022/08/17 03:59:02;;;;;;;2.63;1.70;;;;;;;23.07;54.61;98280.66;5034215;28;20164;-64
2022/08/17 04:01:50;;;;;;;2.92;1.50;;;;;;;22.84;55.10;98283.63;5033610;28;20087;-65
2022/08/17 04:04:36;;;;;;;3.05;1.65;;;;;;;22.35;56.48;98279.00;5033600;28;20045;-64
2022/08/17 04:07:23;;;;;;;3.05;1.63;;;;;;;21.96;58.00;98286.47;5034085;28;20048;-65
2022/08/17 04:10:08;;;;;;;2.80;1.67;;;;;;;22.02;57.64;98282.19;5034052;28;20373;-64
2022/08/17 04:12:54;;;;;;;3.80;1.52;;;;;;;22.01;57.32;98286.72;5032147;28;20755;-64
2022/08/17 04:15:39;;;;;;;3.60;1.60;;;;;;;21.84;57.98;98287.97;5035177;28;20034;-64
2022/08/17 04:18:27;;;;;;;3.25;1.70;;;;;;;21.91;58.09;98291.53;5050583;28;20060;-65
2022/08/17 04:21:11;;;;;;;3.72;1.40;;;;;;;21.97;58.50;98289.94;5044478;28;20048;-65
2022/08/17 04:23:57;;;;;;;3.00;1.60;;;;;;;22.42;57.32;98287.03;5041341;28;20626;-65
2022/08/17 04:26:45;;;;;;;2.30;1.70;;;;;;;22.55;56.46;98285.47;5036690;28;20064;-65
2022/08/17 04:29:29;;;;;;;3.78;1.45;;;;;;;22.54;56.81;98286.50;5033600;28;20048;-64
2022/08/17 04:32:14;;;;;;;2.63;1.50;;;;;;;22.46;57.17;98280.28;5033692;28;20042;-65
2022/08/17 04:35:00;;;;;;;3.25;1.85;;;;;;;22.40;56.84;98287.25;5033529;28;20449;-65
2022/08/17 04:38:01;;;;;;;4.85;2.05;;;;;;;22.59;56.72;98290.22;5035391;28;20042;-65
2022/08/17 04:43:54;;;;;;;2.30;1.65;;;;;;;23.08;54.94;98287.66;5036519;28;20036;-65
2022/08/17 04:46:39;;;;;;;2.80;1.67;;;;;;;23.18;54.71;98289.13;5050807;28;20037;-66
2022/08/17 04:49:24;;;;;;;3.53;2.20;;;;;;;23.17;54.90;98291.00;5024330;28;20053;-65
2022/08/17 04:52:09;;;;;;;3.35;1.90;;;;;;;23.38;54.49;98297.22;5037189;28;20046;-64
2022/08/17 04:54:54;;;;;;;3.80;1.88;;;;;;;22.93;55.96;98298.44;5035410;28;20045;-65
2022/08/17 04:57:38;;;;;;;2.83;1.90;;;;;;;23.04;55.67;98296.25;5052709;28;20431;-65
2022/08/17 05:00:24;;;;;;;4.80;1.63;;;;;;;23.06;55.75;98303.03;5032147;28;20041;-65
2022/08/17 05:03:10;;;;;;;4.18;1.90;;;;;;;22.97;55.83;98305.06;5033120;28;20067;-64
2022/08/17 05:05:55;;;;;;;2.83;1.40;;;;;;;23.10;55.80;98306.16;5032255;28;20045;-65
2022/08/17 05:08:40;;;;;;;3.10;1.92;;;;;;;23.26;55.21;98304.97;5027147;28;20048;-64
2022/08/17 05:11:27;;;;;;;5.07;2.00;;;;;;;23.37;55.12;98306.28;5044812;28;20420;-64
2022/08/17 05:14:12;;;;;;;3.47;1.90;;;;;;;23.49;54.56;98307.38;5045428;28;20037;-64
2022/08/17 05:16:57;;;;;;;3.53;1.85;;;;;;;23.50;54.78;98305.53;5043485;28;20047;-63
2022/08/17 05:19:41;;;;;;;2.80;1.80;;;;;;;23.43;55.09;98304.66;5044073;28;20033;-63
2022/08/17 05:22:26;;;;;;;2.95;1.73;;;;;;;23.74;53.92;98306.81;5032958;28;20045;-64
2022/08/17 05:25:11;;;;;;;5.00;1.75;;;;;;;23.85;54.04;98309.91;5060837;28;20052;-64
2022/08/17 05:27:56;;;;;;;4.25;2.10;;;;;;;23.46;55.67;98306.94;5041213;28;20044;-64
2022/08/17 05:30:43;;;;;;;3.75;1.95;;;;;;;22.91;57.68;98308.53;5032969;28;20057;-64
2022/08/17 05:33:32;;;;;;;3.13;2.28;;;;;;;23.28;56.54;98318.97;5020881;28;20033;-63
2022/08/17 05:36:17;;;;;;;5.22;2.40;;;;;;;23.59;55.27;98315.00;5035508;28;20036;-66
2022/08/17 05:39:02;;;;;;;4.85;2.28;;;;;;;23.46;55.49;98313.13;5050254;28;20037;-65
2022/08/17 05:41:47;;;;;;;2.38;2.03;;;;;;;23.44;55.53;98304.47;5032398;28;20069;-64
2022/08/17 05:44:33;;;;;;;6.13;2.60;;;;;;;23.37;55.99;98314.28;5058658;28;20044;-64
2022/08/17 05:47:18;;;;;;;4.53;2.47;;;;;;;23.31;56.88;98312.38;5059581;28;20064;-66
2022/08/17 05:50:04;;;;;;;3.75;2.45;;;;;;;23.36;56.47;98317.97;5031948;28;20052;-63
2022/08/17 05:53:01;;;;;;;3.90;2.55;;;;;;;23.54;56.09;98319.28;5044501;28;20052;-63
2022/08/17 05:56:00;;;;;;;5.55;2.78;;;;;;;23.66;56.28;98316.88;5066808;28;20120;-64
2022/08/17 05:59:17;;;;;;;6.30;2.58;;;;;;;23.78;56.63;98315.25;5036803;28;20755;-63
2022/08/17 06:02:20;;;;;;;4.25;2.05;;;;;;;24.43;55.11;98311.19;5031274;28;20057;-63
2022/08/17 06:05:30;;;;;;;4.35;2.63;;;;;;;23.73;58.35;98326.53;5030581;28;20044;-63
2022/08/17 06:08:29;;;;;;;3.53;2.53;;;;;;;24.93;55.79;98314.44;5044651;28;20095;-64
2022/08/17 06:11:25;;;;;;;3.35;2.50;;;;;;;24.83;55.22;98315.69;5046192;28;20488;-63
2022/08/17 06:14:24;;;;;;;5.18;2.58;;;;;;;25.24;52.17;98314.75;5050087;28;20115;-63
2022/08/17 06:17:14;;;;;;;4.93;2.40;;;;;;;25.52;52.30;98316.28;5031118;28;20058;-63
2022/08/17 06:20:05;;;;;;;7.18;2.40;;;;;;;26.04;53.72;98315.38;5031575;28;20041;-62
2022/08/17 06:22:57;;;;;;;3.75;2.33;;;;;;;26.17;50.21;98312.59;5031140;28;20061;-62
2022/08/17 06:25:48;;;;;;;6.45;2.40;;;;;;;26.12;49.35;98316.97;5041889;28;20405;-61
2022/08/17 06:28:36;;;;;;;;;;;;;;;26.07;49.87;98313.09;5032840;28;20065;-62
2022/08/17 06:31:27;;;;;;;8.35;5.15;;;;;;;26.47;51.34;98313.84;5058871;28;19948;-61
2022/08/17 06:34:12;;;;;;;8.57;6.68;;;;;;;27.23;48.78;98310.16;5035737;28;20033;-60
2022/08/17 06:37:37;;;;;;;8.05;2.88;;;;;;;27.63;47.03;98316.06;5039229;28;20048;-62
2022/08/17 06:40:44;;;;;;;8.70;2.60;;;;;;;27.61;46.61;98316.28;5031071;28;20041;-62
2022/08/17 06:43:53;;;;;;;9.95;3.53;;;;;;;27.16;47.70;98320.97;5058139;28;20135;-61
2022/08/17 06:46:47;;;;;;;4.32;2.50;;;;;;;26.97;48.36;98312.09;5057552;28;20038;-62
2022/08/17 06:49:45;;;;;;;4.22;2.70;;;;;;;27.76;47.21;98323.16;5044008;28;20099;-62
2022/08/17 06:52:37;;;;;;;3.72;2.22;;;;;;;28.31;45.59;98317.75;5030652;28;20041;-62
2022/08/17 06:55:28;;;;;;;;;;;;;;;28.39;45.33;98322.81;5037810;28;20112;-61
2022/08/17 06:58:19;;;;;;;5.40;2.38;;;;;;;28.29;45.60;98326.06;5033205;28;20395;-62
2022/08/17 07:01:19;;;;;;;4.28;2.55;;;;;;;28.13;46.21;98328.41;5050615;28;20194;-62
2022/08/17 07:04:28;;;;;;;3.17;2.00;;;;;;;28.47;45.59;98325.19;5041518;28;20049;-62
2022/08/17 07:10:19;;;;;;;6.00;2.10;;;;;;;28.06;46.65;98337.63;5067482;28;20065;-64
2022/08/17 07:13:24;;;;;;;4.93;2.17;;;;;;;28.30;46.01;98327.72;5043204;28;20040;-64
2022/08/17 07:16:30;;;;;;;6.25;2.22;;;;;;;28.52;45.67;98330.69;5029208;28;20389;-64
2022/08/17 07:19:17;;;;;;;4.88;1.88;;;;;;;28.84;44.76;98320.59;5057783;28;20064;-62
2022/08/17 07:22:20;;;;;;;6.03;2.03;;;;;;;29.23;44.02;98328.16;5030070;28;20038;-63
2022/08/17 07:25:08;;;;;;;5.18;2.28;;;;;;;29.41;43.61;98334.44;5029850;28;20033;-63
2022/08/17 07:27:56;;;;;;;2.58;1.70;;;;;;;29.56;42.63;98334.72;5044318;28;20469;-64
2022/08/17 07:30:48;;;;;;;7.20;2.53;;;;;;;29.77;41.46;98335.13;5034736;28;20488;-63
2022/08/17 07:33:35;;;;;;;6.95;2.00;;;;;;;30.45;40.19;98333.56;5034800;28;20061;-62
2022/08/17 07:36:24;;;;;;;2.63;1.80;;;;;;;30.91;39.21;98332.63;5038833;28;20033;-63
2022/08/17 07:39:09;;;;;;;2.45;1.88;;;;;;;31.20;39.14;98325.16;5043696;28;20043;-65
2022/08/17 07:42:01;;;;;;;3.78;2.00;;;;;;;31.07;38.34;98329.06;5019656;28;20033;-63
2022/08/17 07:44:52;;;;;;;3.72;2.00;;;;;;;31.23;38.71;98324.66;5072680;28;20131;-63
2022/08/17 07:50:40;;;;;;;6.47;2.20;;;;;;;31.64;37.40;98328.06;5036238;28;19917;-63
2022/08/17 07:53:25;;;;;;;4.97;2.17;;;;;;;31.65;36.32;98324.28;5028385;28;20847;-62
2022/08/17 07:56:30;;;;;;;3.42;2.30;;;;;;;32.10;35.88;98337.72;5019480;28;20049;-63
2022/08/17 07:59:18;;;;;;;4.53;2.13;;;;;;;32.38;35.59;98333.84;5033963;28;20041;-64
2022/08/17 08:02:04;;;;;;;5.00;2.13;;;;;;;32.64;34.54;98335.97;5033144;28;20038;-63
2022/08/17 08:04:59;;;;;;;4.07;2.45;;;;;;;32.72;34.54;98338.19;5032713;28;20072;-63
2022/08/17 08:07:49;;;;;;;5.22;2.33;;;;;;;32.88;34.69;98333.66;5033921;28;20037;-62
2022/08/17 08:10:37;;;;;;;4.72;2.08;;;;;;;33.11;34.90;98336.22;5034023;28;20044;-63
2022/08/17 08:13:24;;;;;;;2.50;2.10;;;;;;;33.59;33.18;98327.16;5033295;28;20034;-63
2022/08/17 08:16:23;;;;;;;3.10;2.10;;;;;;;33.65;33.03;98331.53;5038469;28;20059;-63
2022/08/17 08:19:15;;;;;;;3.90;2.38;;;;;;;33.64;32.12;98336.13;5037434;28;20535;-62
2022/08/17 08:22:09;;;;;;;2.97;2.28;;;;;;;33.30;33.67;98340.09;5033460;28;20492;-63
2022/08/17 08:25:24;;;;;;;4.40;2.33;;;;;;;33.90;32.43;98338.09;5032482;28;20038;-62
2022/08/17 08:28:24;;;;;;;3.50;2.33;;;;;;;33.75;32.88;98336.16;5032284;28;20081;-63
2022/08/17 08:31:25;;;;;;;3.80;2.17;;;;;;;34.76;31.51;98333.97;5033560;28;20120;-63
2022/08/17 08:34:28;;;;;;;3.95;2.30;;;;;;;34.26;32.19;98338.09;5060224;28;20064;-64
2022/08/17 08:37:31;;;;;;;3.63;2.22;;;;;;;33.65;33.34;98337.78;5043911;28;20053;-63
2022/08/17 08:40:57;;;;;;;2.70;1.98;;;;;;;33.74;31.98;98343.47;5037013;28;20060;-64
2022/08/17 08:43:57;;;;;;;4.15;2.15;;;;;;;35.14;30.65;98328.94;5032572;28;20037;-64
2022/08/17 08:47:00;;;;;;;2.53;2.05;;;;;;;34.24;31.41;98337.56;5033262;28;20406;-65
2022/08/17 08:50:22;;;;;;;3.15;2.22;;;;;;;34.70;30.92;98343.25;5041614;28;20486;-66
2022/08/17 08:53:43;;;;;;;4.57;2.22;;;;;;;34.35;31.37;98338.38;5033119;28;20081;-65
2022/08/17 08:56:46;;;;;;;4.35;2.45;;;;;;;34.75;30.59;98337.75;5045070;28;20049;-65
2022/08/17 08:59:31;;;;;;;3.97;1.83;;;;;;;35.65;29.48;98330.88;5044481;28;20040;-64
2022/08/17 09:02:16;;;;;;;2.22;1.88;;;;;;;35.46;29.25;98332.34;5033052;28;20041;-63
2022/08/17 09:05:41;;;;;;;3.80;2.20;;;;;;;35.88;29.38;98338.34;5036989;28;20040;-64
2022/08/17 09:08:45;;;;;;;3.53;1.95;;;;;;;37.00;27.68;98342.53;5044001;28;20033;-62
2022/08/17 09:11:53;;;;;;;2.80;2.00;;;;;;;35.82;28.99;98341.41;5045763;28;20064;-63
2022/08/17 09:14:46;;;;;;;4.65;2.08;;;;;;;35.80;29.27;98343.59;5032544;28;20029;-62
2022/08/17 09:17:40;;;;;;;3.65;2.30;;;;;;;35.60;29.24;98345.31;5045408;28;20387;-62
2022/08/17 09:20:39;;;;;;;5.45;2.42;;;;;;;35.83;29.13;98338.38;5031663;28;20037;-62
2022/08/17 09:23:36;;;;;;;4.07;2.38;;;;;;;36.97;27.57;98347.44;5043662;28;20448;-63
2022/08/17 09:26:29;;;;;;;4.97;2.80;;;;;;;36.10;28.59;98341.72;5032346;28;20069;-63
2022/08/17 09:29:16;;;;;;;5.25;2.85;;;;;;;37.31;27.09;98351.13;5045293;28;20385;-63
2022/08/17 09:32:13;;;;;;;3.55;2.15;;;;;;;37.12;26.98;98350.28;5072179;28;20037;-62
2022/08/17 09:35:04;;;;;;;3.63;2.38;;;;;;;37.78;25.88;98339.59;5045352;28;20087;-64
2022/08/17 09:38:23;;;;;;;3.60;2.15;;;;;;;37.95;25.89;98336.31;5045266;28;20040;-62
2022/08/17 09:41:21;;;;;;;3.67;2.60;;;;;;;37.20;26.41;98353.16;5034414;28;20707;-62
2022/08/17 09:44:13;;;;;;;4.88;2.25;;;;;;;37.18;26.48;98347.19;5031884;28;20045;-62
2022/08/17 09:47:18;;;;;;;7.38;2.13;;;;;;;36.81;26.89;98341.38;5044989;28;20077;-62
2022/08/17 09:50:19;;;;;;;3.83;2.10;;;;;;;38.52;24.41;98328.28;5032270;28;20050;-62
2022/08/17 09:53:04;;;;;;;3.08;2.08;;;;;;;37.58;25.39;98335.22;5031001;28;20095;-63
2022/08/17 09:56:10;;;;;;;4.65;1.85;;;;;;;38.65;23.85;98334.88;5031916;28;20083;-64
2022/08/17 09:59:24;;;;;;;5.57;2.38;;;;;;;38.07;24.34;98333.13;5032104;28;20064;-63
2022/08/17 10:02:21;;;;;;;6.68;2.25;;;;;;;37.13;25.31;98346.44;5032188;28;20044;-63
2022/08/17 10:05:47;;;;;;;3.85;1.70;;;;;;;38.13;24.01;98331.09;5030457;28;20441;-63
2022/08/17 10:08:43;;;;;;;3.20;1.80;;;;;;;37.29;24.85;98331.53;5032053;28;20037;-63
2022/08/17 10:12:22;;;;;;;5.43;1.70;;;;;;;38.45;23.02;98321.25;5032087;28;20065;-63
2022/08/17 10:15:13;;;;;;;2.47;1.65;;;;;;;37.77;24.35;98318.84;5061552;28;20071;-63
2022/08/17 10:18:07;;;;;;;3.25;1.70;;;;;;;38.07;24.20;98319.47;5035811;28;20037;-62
2022/08/17 10:27:51;;;;;;;2.75;1.77;;;;;;;36.84;26.33;98318.97;5037246;28;20591;-62
2022/08/17 10:30:55;;;;;;;2.90;1.98;;;;;;;36.82;26.36;98326.63;5037513;28;20111;-64
2022/08/17 10:33:46;;;;;;;5.18;1.90;;;;;;;37.82;25.29;98315.22;5031471;28;20037;-64
2022/08/17 10:36:54;;;;;;;4.43;2.13;;;;;;;38.62;23.87;98314.38;5036096;28;20032;-63
2022/08/17 10:39:50;;;;;;;3.70;2.17;;;;;;;38.80;23.74;98304.50;5046883;28;20053;-63
2022/08/17 10:42:44;;;;;;;4.32;2.15;;;;;;;38.28;23.60;98302.72;5031032;28;20124;-62
2022/08/17 10:45:43;;;;;;;3.05;1.83;;;;;;;38.11;24.29;98303.28;5030767;28;20033;-62
2022/08/17 10:48:35;;;;;;;4.63;2.13;;;;;;;38.37;24.20;98289.19;5034518;28;20079;-64
2022/08/17 10:51:37;;;;;;;2.13;1.55;;;;;;;37.84;25.24;98299.34;5031575;28;20033;-62
2022/08/17 10:54:37;;;;;;;4.50;1.75;;;;;;;38.73;24.34;98295.09;5060611;28;20511;-63
2022/08/17 10:57:25;;;;;;;2.28;1.80;;;;;;;38.08;24.44;98301.13;5036426;28;20038;-62
2022/08/17 11:00:26;;;;;;;4.10;1.80;;;;;;;38.34;24.21;98299.91;5029929;28;20480;-61
2022/08/17 11:03:20;;;;;;;4.20;2.08;;;;;;;38.51;23.72;98293.81;5031970;28;20065;-63
2022/08/17 11:06:18;;;;;;;2.28;1.73;;;;;;;39.18;23.10;98289.78;5043020;28;20039;-64
2022/08/17 11:09:18;;;;;;;2.63;1.77;;;;;;;38.47;24.42;98290.88;5035216;28;20053;-64
2022/08/17 11:12:12;;;;;;;3.58;2.20;;;;;;;38.42;23.64;98293.72;5034766;28;20042;-66
2022/08/17 11:15:13;;;;;;;3.05;1.80;;;;;;;38.43;23.81;98287.97;5034065;28;20387;-65
2022/08/17 11:18:12;;;;;;;3.00;1.75;;;;;;;38.64;23.35;98290.28;5034994;28;20049;-66
2022/08/17 11:21:03;;;;;;;2.92;1.80;;;;;;;37.84;23.94;98293.88;5036849;28;20103;-64
2022/08/17 11:24:03;;;;;;;2.60;1.80;;;;;;;38.47;23.28;98295.56;5034286;28;20041;-64
2022/08/17 11:27:19;;;;;;;2.60;1.70;;;;;;;38.86;23.24;98290.72;5019201;28;20128;-63
2022/08/17 11:30:06;;;;;;;3.03;2.03;;;;;;;39.84;22.47;98284.19;5035704;28;20045;-64
2022/08/17 11:32:51;;;;;;;3.33;1.83;;;;;;;39.23;22.27;98290.75;5033979;28;20095;-60
2022/08/17 11:35:48;;;;;;;2.67;1.58;;;;;;;38.49;23.34;98285.13;5034419;28;20037;-60
2022/08/17 11:38:46;;;;;;;1.75;1.55;;;;;;;38.77;23.00;98279.66;5035519;28;20044;-60
2022/08/17 11:42:15;;;;;;;2.70;1.77;;;;;;;37.57;24.66;98271.59;5034956;28;20096;-61
2022/08/17 11:45:26;;;;;;;3.13;2.25;;;;;;;37.98;23.88;98279.47;5025358;28;20464;-60
2022/08/17 11:52:06;;;;;;;2.35;1.73;;;;;;;39.29;22.40;98262.97;5041567;28;20045;-61
2022/08/17 11:54:50;;;;;;;4.40;1.77;;;;;;;37.38;24.45;98262.63;5044783;28;20033;-63
2022/08/17 11:57:41;;;;;;;3.60;1.90;;;;;;;37.78;24.24;98257.66;5041697;28;20112;-60
2022/08/17 12:00:44;;;;;;;3.55;1.45;;;;;;;36.73;24.83;98260.16;5042686;28;20033;-63
2022/08/17 12:03:37;;;;;;;2.92;1.67;;;;;;;38.37;23.41;98261.03;5048205;28;20038;-62
2022/08/17 12:06:41;;;;;;;2.22;1.50;;;;;;;38.52;23.98;98255.22;5044513;28;20047;-59
2022/08/17 12:09:33;;;;;;;2.30;1.50;;;;;;;37.58;24.41;98250.56;5049078;28;20042;-62
2022/08/17 12:12:34;;;;;;;3.10;1.80;;;;;;;38.72;23.02;98250.50;5053576;28;20392;-65
2022/08/17 12:15:27;;;;;;;3.53;1.90;;;;;;;39.03;22.23;98247.09;5033663;28;20128;-66
2022/08/17 12:18:28;;;;;;;5.35;1.63;;;;;;;38.44;23.39;98245.81;5032511;28;20040;-64
2022/08/17 12:21:26;;;;;;;5.18;1.88;;;;;;;38.78;22.72;98246.53;5033550;28;20041;-64
2022/08/17 12:24:35;;;;;;;2.45;1.77;;;;;;;38.92;23.04;98246.53;5060520;28;20095;-65
2022/08/17 12:27:44;;;;;;;2.10;1.63;;;;;;;39.90;21.49;98239.91;5033403;28;20033;-64
2022/08/17 12:30:29;;;;;;;2.08;1.58;;;;;;;39.76;21.61;98231.75;5032172;28;20037;-65
2022/08/17 12:33:14;;;;;;;2.60;1.70;;;;;;;38.99;22.21;98242.56;5045721;28;20045;-64
2022/08/17 12:36:03;;;;;;;2.05;1.45;;;;;;;38.92;21.95;98237.50;5033778;28;20484;-65
2022/08/17 12:38:58;;;;;;;2.78;1.83;;;;;;;38.87;22.04;98234.88;5040270;28;20046;-65
2022/08/17 12:41:46;;;;;;;2.92;1.58;;;;;;;38.77;22.15;98230.44;5042725;28;20287;-65
2022/08/17 12:44:35;;;;;;;2.85;1.58;;;;;;;38.19;22.69;98237.00;5047254;28;20399;-64
2022/08/17 12:47:20;;;;;;;4.53;1.65;;;;;;;38.89;22.36;98233.47;5033475;28;20040;-64
2022/08/17 12:50:12;;;;;;;2.15;1.42;;;;;;;38.88;21.86;98231.81;5032544;28;20102;-64
2022/08/17 12:52:57;;;;;;;3.58;1.70;;;;;;;38.92;22.19;98229.28;5022807;28;20116;-64
2022/08/17 12:55:45;;;;;;;2.15;1.52;;;;;;;38.98;21.54;98230.78;5039593;28;20418;-62
2022/08/17 12:58:36;;;;;;;2.15;1.48;;;;;;;38.77;21.82;98227.69;5046211;28;20473;-65
2022/08/17 13:01:23;;;;;;;3.53;1.60;;;;;;;37.72;23.13;98215.13;5031803;28;20045;-65
2022/08/17 13:04:14;;;;;;;4.30;1.45;;;;;;;37.66;22.83;98225.31;5038236;28;20065;-64
2022/08/17 13:07:01;;;;;;;3.55;1.58;;;;;;;37.24;23.65;98216.16;5050139;28;20041;-64
2022/08/17 13:09:50;;;;;;;2.30;1.48;;;;;;;37.56;23.40;98212.63;5033196;28;20427;-65
2022/08/17 13:12:35;;;;;;;2.30;1.58;;;;;;;38.98;21.62;98208.91;5033461;28;20053;-66
2022/08/17 13:15:24;;;;;;;3.17;1.50;;;;;;;38.90;21.79;98207.72;5044423;28;20041;-65
2022/08/17 13:18:33;;;;;;;3.80;1.88;;;;;;;36.42;24.79;98211.44;5033167;28;20045;-65
2022/08/17 13:21:17;;;;;;;3.17;1.60;;;;;;;36.18;25.03;98218.50;5033329;28;20065;-66
2022/08/17 13:24:16;;;;;;;2.20;1.52;;;;;;;36.77;24.14;98222.25;5031502;28;20045;-65
2022/08/17 13:27:00;;;;;;;3.67;1.60;;;;;;;37.65;23.65;98214.69;5036993;28;20037;-67
2022/08/17 13:29:47;;;;;;;4.53;2.05;;;;;;;37.65;23.62;98214.69;5043753;28;20033;-68
2022/08/17 13:32:37;;;;;;;2.28;1.70;;;;;;;37.79;23.39;98203.81;5032490;28;20049;-70
2022/08/17 13:35:42;;;;;;;2.80;1.90;;;;;;;37.95;23.22;98207.91;5033872;28;20041;-68
2022/08/17 13:38:48;;;;;;;2.45;1.67;;;;;;;38.77;22.15;98211.28;5031211;28;20041;-68
2022/08/17 13:41:37;;;;;;;3.75;1.80;;;;;;;37.53;23.45;98213.25;5030916;28;20388;-69
2022/08/17 13:44:38;;;;;;;3.90;1.60;;;;;;;37.38;22.93;98217.03;5032044;28;20061;-65
2022/08/17 13:47:23;;;;;;;3.65;1.98;;;;;;;37.80;22.97;98208.19;5030593;28;20049;-65
2022/08/17 13:50:19;;;;;;;5.55;1.75;;;;;;;38.73;22.85;98204.81;5041687;28;20047;-65
2022/08/17 13:53:31;;;;;;;2.42;1.88;;;;;;;38.51;22.02;98198.94;5031944;28;20049;-62
2022/08/17 13:56:36;;;;;;;3.75;1.42;;;;;;;38.61;21.68;98197.09;5024910;28;20041;-66
2022/08/17 13:59:41;;;;;;;3.30;1.52;;;;;;;38.11;23.42;98199.44;5030973;28;20041;-64
2022/08/17 14:02:26;;;;;;;2.40;1.60;;;;;;;37.06;24.34;98197.56;5041620;28;20094;-65
2022/08/17 14:05:10;;;;;;;4.57;1.75;;;;;;;36.87;24.00;98205.75;5017127;28;20103;-64